This is the latest recevied weather packets stored in our database for station/object SP2JGY-2. If no packets are shown the sender has not sent any weather packets the latest 10 day(s).
| Time | Temp. | Humidity | Pressure | Rain* | Wind** | Luminosity | Snow |
|---|---|---|---|---|---|---|---|
| 1777488848 | 6.11° C | 50% | 1030.9 hPa | - | - | - | - |
| 1777487948 | 7.22° C | 47% | 1030.6 hPa | - | - | - | - |
| 1777487048 | 7.22° C | 43% | 1030.4 hPa | - | - | - | - |
| 1777486148 | 8.33° C | 41% | 1030.4 hPa | - | - | - | - |
| 1777485248 | 9.44° C | 38% | 1030.3 hPa | - | - | - | - |
| 1777484348 | 10.56° C | 34% | 1030.1 hPa | - | - | - | - |
| 1777483447 | 10.56° C | 35% | 1030 hPa | - | - | - | - |
| 1777482547 | 12.22° C | 33% | 1029.9 hPa | - | - | - | - |
| 1777481647 | 12.22° C | 31% | 1029.7 hPa | - | - | - | - |
| 1777480747 | 15° C | 24% | 1029.5 hPa | - | - | - | - |
| 1777479847 | 15° C | 22% | 1029.6 hPa | - | - | - | - |
| 1777478946 | 20.56° C | 14% | 1029.6 hPa | - | - | - | - |
| 1777478046 | 19.44° C | 15% | 1029.5 hPa | - | - | - | - |
| 1777477146 | 19.44° C | 15% | 1029.6 hPa | - | - | - | - |
| 1777476246 | 22.78° C | 12% | 1029.2 hPa | - | - | - | - |
| 1777475346 | 23.33° C | 12% | 1029.3 hPa | - | - | - | - |
| 1777474446 | 20° C | 14% | 1029.4 hPa | - | - | - | - |
| 1777473546 | 18.33° C | 15% | 1029.5 hPa | - | - | - | - |
| 1777472645 | 13.89° C | 21% | 1029.5 hPa | - | - | - | - |
| 1777471745 | 13.33° C | 22% | 1029.6 hPa | - | - | - | - |
| 1777470845 | 13.89° C | 24% | 1029.6 hPa | - | - | - | - |
| 1777469945 | 13.89° C | 23% | 1029.7 hPa | - | - | - | - |
| 1777469045 | 11.67° C | 25% | 1029.7 hPa | - | - | - | - |
| 1777468145 | 14.44° C | 23% | 1029.6 hPa | - | - | - | - |
| 1777467244 | 13.89° C | 24% | 1029.7 hPa | - | - | - | - |
* Rain since midnight (hover to see other rain measurements)
** Current wind speed in m/s (hover to see current wind gust speed)